Time;durP1;ratioP1;P1;durP2;ratioP2;P2;SDS_P1;SDS_P2;PMS_P1;PMS_P2;Temp;Humidity;BMP_temperature;BMP_pressure;BME280_temperature;BME280_humidity;BME280_pressure;Samples;Min_cycle;Max_cycle;Signal;HPM_P1;HPM_P2
2022/05/28 00:00:31;;;;;;;6.00;0.43;;;10.90;99.90;;;;;;5053759;28;20033;-75
2022/05/28 00:02:57;;;;;;;5.18;0.47;;;10.80;99.90;;;;;;5054024;28;20029;-75
2022/05/28 00:05:22;;;;;;;10.15;0.77;;;10.80;99.90;;;;;;5053369;28;20027;-75
2022/05/28 00:07:48;;;;;;;10.05;0.60;;;10.70;99.90;;;;;;5052383;28;20113;-75
2022/05/28 00:10:17;;;;;;;8.30;0.65;;;10.70;99.90;;;;;;5053677;28;20207;-75
2022/05/28 00:12:43;;;;;;;7.40;0.30;;;10.70;99.90;;;;;;5053368;28;20104;-75
2022/05/28 00:15:09;;;;;;;6.68;0.20;;;10.60;99.90;;;;;;5052056;28;20075;-74
2022/05/28 00:17:36;;;;;;;4.13;0.47;;;10.70;99.90;;;;;;5053842;28;20021;-75
2022/05/28 00:20:03;;;;;;;13.00;1.05;;;10.60;99.90;;;;;;5053568;28;20028;-75
2022/05/28 00:22:28;;;;;;;6.75;0.35;;;10.60;99.90;;;;;;5053707;28;20438;-75
2022/05/28 00:24:55;;;;;;;7.20;0.20;;;10.50;99.90;;;;;;5053404;28;20026;-75
2022/05/28 00:27:21;;;;;;;6.50;1.10;;;10.40;99.90;;;;;;5053112;28;20372;-75
2022/05/28 00:29:46;;;;;;;5.22;0.10;;;10.40;99.90;;;;;;5053002;28;20021;-74
2022/05/28 00:32:12;;;;;;;6.32;0.45;;;10.40;99.90;;;;;;5053655;28;20021;-75
2022/05/28 00:34:40;;;;;;;3.42;0.28;;;10.40;99.90;;;;;;5053127;28;20476;-75
2022/05/28 00:37:07;;;;;;;7.63;0.33;;;10.30;99.90;;;;;;5053578;28;20047;-75
2022/05/28 00:39:34;;;;;;;5.28;0.30;;;10.30;99.90;;;;;;5051778;28;20021;-75
2022/05/28 00:41:59;;;;;;;2.30;0.10;;;10.30;99.90;;;;;;5053298;28;20032;-75
2022/05/28 00:44:25;;;;;;;3.03;0.10;;;10.30;99.90;;;;;;5051613;28;20388;-75
2022/05/28 00:46:54;;;;;;;5.13;0.15;;;10.30;99.90;;;;;;5051622;28;20079;-75
2022/05/28 00:49:24;;;;;;;6.43;0.30;;;10.30;99.90;;;;;;5052943;28;20369;-75
2022/05/28 00:51:53;;;;;;;6.70;0.10;;;10.30;99.90;;;;;;5051727;28;20514;-75
2022/05/28 00:54:19;;;;;;;6.53;0.10;;;10.30;99.90;;;;;;5053100;28;20441;-75
2022/05/28 00:56:45;;;;;;;4.57;0.15;;;10.30;99.90;;;;;;5053514;28;20056;-75
2022/05/28 00:59:10;;;;;;;7.40;0.63;;;10.40;99.90;;;;;;5053364;28;20036;-75
2022/05/28 01:01:41;;;;;;;3.97;0.10;;;10.30;99.90;;;;;;5053467;28;20078;-75
2022/05/28 01:04:37;;;;;;;8.30;0.70;;;10.30;99.90;;;;;;5052978;28;20507;-75
2022/05/28 01:07:15;;;;;;;6.78;0.22;;;10.30;99.90;;;;;;5054475;28;20102;-75
2022/05/28 01:09:54;;;;;;;4.25;0.22;;;10.30;99.90;;;;;;5055427;28;20017;-75
2022/05/28 01:12:35;;;;;;;6.35;0.60;;;10.30;99.90;;;;;;5055351;28;20021;-74
2022/05/28 01:15:08;;;;;;;5.50;0.55;;;10.30;99.90;;;;;;5055465;28;20013;-75
2022/05/28 01:17:57;;;;;;;7.68;0.50;;;10.30;99.90;;;;;;5056499;28;20025;-75
2022/05/28 01:20:45;;;;;;;9.98;0.20;;;10.20;99.90;;;;;;5045241;28;20049;-76
2022/05/28 01:23:29;;;;;;;5.87;0.17;;;10.20;99.90;;;;;;5052381;28;20037;-75
2022/05/28 01:26:10;;;;;;;13.50;0.32;;;10.20;99.90;;;;;;5056406;28;20267;-74
2022/05/28 01:28:40;;;;;;;10.95;0.17;;;10.20;99.90;;;;;;5055094;28;20029;-75
2022/05/28 01:31:07;;;;;;;6.03;0.90;;;10.20;99.90;;;;;;5056327;28;20025;-75
2022/05/28 01:33:41;;;;;;;8.45;0.20;;;10.20;99.90;;;;;;5056663;28;20045;-75
2022/05/28 01:36:09;;;;;;;5.50;0.52;;;10.30;99.90;;;;;;5055023;28;20055;-75
2022/05/28 01:38:37;;;;;;;6.25;0.63;;;10.30;99.90;;;;;;5056191;28;20086;-75
2022/05/28 01:41:06;;;;;;;5.65;0.40;;;10.30;99.90;;;;;;5056154;28;20029;-75
2022/05/28 01:43:34;;;;;;;;;;;10.20;99.90;;;;;;5056706;28;20590;-74
2022/05/28 01:46:00;;;;;;;4.45;0.10;;;10.20;99.90;;;;;;5056017;28;19970;-74
2022/05/28 01:48:27;;;;;;;7.63;0.47;;;10.20;99.90;;;;;;5056388;28;20100;-74
2022/05/28 01:50:55;;;;;;;10.48;0.50;;;10.20;99.90;;;;;;5054658;28;20013;-74
2022/05/28 01:56:08;;;;;;;10.50;0.80;;;10.20;99.90;;;;;;5055842;28;20031;-75
2022/05/28 01:58:34;;;;;;;4.43;0.30;;;10.20;99.90;;;;;;5055764;28;20029;-74
2022/05/28 02:01:01;;;;;;;7.15;0.08;;;10.20;99.90;;;;;;5055715;28;20032;-74
2022/05/28 02:03:31;;;;;;;9.75;0.80;;;10.10;99.90;;;;;;5055730;28;20029;-75
2022/05/28 02:05:56;;;;;;;10.10;0.17;;;10.10;99.90;;;;;;5055634;28;20053;-75
2022/05/28 02:08:22;;;;;;;17.75;1.25;;;10.10;99.90;;;;;;5054234;28;20515;-75
2022/05/28 02:11:07;;;;;;;11.02;0.50;;;10.10;99.90;;;;;;5055516;28;20139;-75
2022/05/28 02:13:56;;;;;;;2.72;0.15;;;10.20;99.90;;;;;;5054377;28;20021;-75
2022/05/28 02:16:36;;;;;;;9.10;0.22;;;10.20;99.90;;;;;;5044781;28;20064;-75
2022/05/28 02:19:08;;;;;;;10.65;0.65;;;10.20;99.90;;;;;;5054600;28;20078;-75
2022/05/28 02:21:48;;;;;;;13.55;0.88;;;10.30;99.90;;;;;;5055511;28;20021;-75
2022/05/28 02:24:31;;;;;;;10.18;0.22;;;10.20;99.90;;;;;;5055237;28;20033;-75
2022/05/28 02:27:08;;;;;;;5.00;0.45;;;10.20;99.90;;;;;;5055308;28;20446;-76
2022/05/28 02:29:34;;;;;;;2.38;0.25;;;10.20;99.90;;;;;;5055266;28;20487;-76
2022/05/28 02:32:10;;;;;;;7.97;0.25;;;10.20;99.90;;;;;;5053853;28;20013;-76
2022/05/28 02:34:36;;;;;;;6.03;0.00;;;10.20;99.90;;;;;;5053832;28;20021;-76
2022/05/28 02:37:01;;;;;;;5.22;0.20;;;10.20;99.90;;;;;;5055079;28;20031;-76
2022/05/28 02:39:27;;;;;;;15.13;0.20;;;10.20;99.90;;;;;;5053773;28;20024;-76
2022/05/28 02:41:52;;;;;;;8.95;0.90;;;10.60;99.90;;;;;;5055302;28;20067;-76
2022/05/28 02:44:18;;;;;;;6.93;0.30;;;10.20;99.90;;;;;;5053611;28;20082;-76
2022/05/28 02:46:44;;;;;;;7.90;0.10;;;10.20;99.90;;;;;;5054746;28;20029;-76
2022/05/28 02:49:09;;;;;;;4.65;0.25;;;10.20;99.90;;;;;;5053572;28;20013;-76
2022/05/28 02:51:37;;;;;;;4.85;0.40;;;10.20;99.90;;;;;;5053551;28;20487;-76
2022/05/28 02:54:03;;;;;;;4.25;0.10;;;10.20;99.90;;;;;;5054652;28;20021;-76
2022/05/28 02:56:29;;;;;;;14.70;0.47;;;10.20;99.90;;;;;;5054917;28;20029;-76
2022/05/28 02:58:54;;;;;;;12.00;0.55;;;10.20;99.90;;;;;;5053319;28;20021;-76
2022/05/28 03:01:25;;;;;;;7.97;1.10;;;10.20;99.90;;;;;;5053242;28;20037;-76
2022/05/28 03:03:52;;;;;;;1.48;0.05;;;10.20;99.90;;;;;;5054516;28;20532;-76
2022/05/28 03:06:17;;;;;;;7.70;0.63;;;10.10;99.90;;;;;;5053172;28;20025;-76
2022/05/28 03:08:43;;;;;;;6.32;0.25;;;10.10;99.90;;;;;;5055028;28;20025;-76
2022/05/28 03:11:09;;;;;;;5.65;0.00;;;10.10;99.90;;;;;;5054387;28;20021;-76
2022/05/28 03:13:35;;;;;;;6.45;0.10;;;10.10;99.90;;;;;;5054470;28;20009;-76
2022/05/28 03:16:01;;;;;;;3.88;0.00;;;10.10;99.90;;;;;;5054350;28;20067;-76
2022/05/28 03:18:27;;;;;;;6.22;0.28;;;10.10;99.90;;;;;;5054299;28;20033;-76
2022/05/28 03:20:52;;;;;;;5.80;0.10;;;10.10;99.90;;;;;;5054154;28;20031;-76
2022/05/28 03:23:18;;;;;;;3.90;0.40;;;10.00;99.90;;;;;;5054173;28;20072;-76
2022/05/28 03:25:43;;;;;;;6.03;0.55;;;10.00;99.90;;;;;;5054107;28;20025;-76
2022/05/28 03:28:09;;;;;;;7.75;0.00;;;10.00;99.90;;;;;;5053998;28;20082;-76
2022/05/28 03:30:34;;;;;;;5.63;0.10;;;10.00;99.90;;;;;;5053646;28;20017;-76
2022/05/28 03:33:00;;;;;;;5.28;0.38;;;9.90;99.90;;;;;;5052781;28;20468;-75
2022/05/28 03:35:26;;;;;;;3.25;0.00;;;9.90;99.90;;;;;;5053176;28;20040;-76
2022/05/28 03:37:51;;;;;;;3.42;0.13;;;9.90;99.90;;;;;;5054210;28;20025;-76
2022/05/28 03:40:17;;;;;;;4.60;0.00;;;9.90;99.90;;;;;;5053875;28;20495;-76
2022/05/28 03:42:42;;;;;;;4.22;0.10;;;9.90;99.90;;;;;;5052581;28;20051;-76
2022/05/28 03:45:09;;;;;;;4.07;0.00;;;9.90;99.90;;;;;;5052685;28;20028;-75
2022/05/28 03:47:35;;;;;;;5.63;1.15;;;10.00;99.90;;;;;;5053697;28;20207;-76
2022/05/28 03:50:02;;;;;;;5.57;0.10;;;9.90;99.90;;;;;;5053654;28;20052;-76
2022/05/28 03:52:28;;;;;;;3.13;0.10;;;9.90;99.90;;;;;;5053568;28;20033;-76
2022/05/28 03:54:53;;;;;;;5.90;0.80;;;9.90;99.90;;;;;;5053785;28;20491;-76
2022/05/28 03:57:31;;;;;;;3.80;0.30;;;9.90;99.90;;;;;;5053564;28;20502;-75
2022/05/28 03:59:57;;;;;;;3.05;0.28;;;9.80;99.90;;;;;;5053882;28;20090;-76
2022/05/28 04:02:24;;;;;;;2.95;0.57;;;9.80;99.90;;;;;;5053577;28;20540;-76
2022/05/28 04:04:49;;;;;;;3.03;0.00;;;9.80;99.90;;;;;;5053666;28;20472;-76
2022/05/28 04:07:15;;;;;;;3.58;0.17;;;9.80;99.90;;;;;;5052045;28;20071;-75
2022/05/28 04:09:41;;;;;;;3.35;0.25;;;9.80;99.90;;;;;;5052146;28;20025;-75
2022/05/28 04:12:07;;;;;;;2.92;0.00;;;9.80;99.90;;;;;;5052090;28;20119;-75
2022/05/28 04:14:32;;;;;;;1.10;0.20;;;9.90;99.90;;;;;;5051977;28;20041;-76
2022/05/28 04:16:58;;;;;;;1.75;0.00;;;9.90;99.90;;;;;;5052047;28;20025;-76
2022/05/28 04:19:23;;;;;;;3.60;0.20;;;9.90;99.90;;;;;;5053329;28;20028;-76
2022/05/28 04:21:49;;;;;;;2.72;0.50;;;10.00;99.90;;;;;;5053560;28;20465;-75
2022/05/28 04:24:15;;;;;;;2.75;0.00;;;10.10;99.90;;;;;;5053209;28;20083;-76
2022/05/28 04:26:41;;;;;;;3.17;0.05;;;10.20;99.90;;;;;;5051884;28;20025;-76
2022/05/28 04:29:07;;;;;;;1.25;0.00;;;10.20;99.90;;;;;;5051884;28;20227;-75
2022/05/28 04:31:33;;;;;;;4.88;0.00;;;10.30;99.90;;;;;;5053425;28;20020;-76
2022/05/28 04:33:58;;;;;;;6.13;0.10;;;10.30;99.90;;;;;;5053052;28;20438;-76
2022/05/28 04:36:24;;;;;;;6.25;0.15;;;10.40;99.90;;;;;;5052991;28;20013;-76
2022/05/28 04:38:50;;;;;;;2.53;0.30;;;10.50;99.90;;;;;;5053031;28;20053;-76
2022/05/28 04:41:15;;;;;;;3.78;0.40;;;10.50;99.90;;;;;;5054057;28;20025;-76
2022/05/28 04:43:41;;;;;;;1.10;0.20;;;10.90;99.90;;;;;;5055885;28;20104;-75
2022/05/28 04:46:07;;;;;;;1.60;0.20;;;10.70;99.90;;;;;;5057136;28;20052;-76
2022/05/28 04:48:33;;;;;;;2.42;0.22;;;10.80;99.90;;;;;;5057287;28;20040;-76
2022/05/28 04:50:59;;;;;;;2.60;0.00;;;10.80;99.90;;;;;;5057375;28;20025;-76
2022/05/28 04:53:24;;;;;;;6.03;0.03;;;10.80;99.90;;;;;;5056964;28;20075;-76
2022/05/28 04:55:50;;;;;;;1.60;0.10;;;10.90;99.90;;;;;;5056965;28;20028;-76
2022/05/28 04:58:16;;;;;;;2.00;0.20;;;10.90;99.90;;;;;;5056177;28;20021;-76
2022/05/28 05:00:44;;;;;;;1.48;0.00;;;11.00;99.90;;;;;;5056239;28;20040;-76
2022/05/28 05:03:10;;;;;;;2.03;0.22;;;11.00;99.90;;;;;;5055749;28;20021;-76
2022/05/28 05:05:36;;;;;;;2.83;0.00;;;11.00;99.90;;;;;;5055670;28;20028;-76
2022/05/28 05:08:04;;;;;;;6.07;0.32;;;11.20;99.90;;;;;;5054160;28;20075;-76
2022/05/28 05:10:29;;;;;;;1.83;0.00;;;11.30;99.90;;;;;;5055374;28;20116;-76
2022/05/28 05:12:55;;;;;;;4.18;0.30;;;11.50;99.90;;;;;;5055332;28;20100;-76
2022/05/28 05:15:21;;;;;;;7.75;0.30;;;11.60;99.90;;;;;;5055229;28;20032;-76
2022/05/28 05:17:47;;;;;;;3.42;0.00;;;11.70;99.90;;;;;;5055330;28;20092;-76
2022/05/28 05:20:13;;;;;;;6.55;0.57;;;11.70;99.90;;;;;;5055797;28;20059;-76
2022/05/28 05:22:39;;;;;;;8.35;0.00;;;12.40;99.90;;;;;;5053895;28;20100;-75
2022/05/28 05:25:05;;;;;;;3.60;0.40;;;11.90;99.90;;;;;;5055073;28;20422;-76
2022/05/28 05:27:31;;;;;;;2.08;0.10;;;12.00;99.90;;;;;;5055023;28;20021;-75
2022/05/28 05:29:58;;;;;;;2.85;0.22;;;12.10;99.90;;;;;;5055098;28;20067;-75
2022/05/28 05:32:24;;;;;;;4.95;0.00;;;12.20;99.90;;;;;;5055039;28;20024;-75
2022/05/28 05:34:49;;;;;;;0.90;0.00;;;12.30;99.90;;;;;;5054944;28;20021;-75
2022/05/28 05:37:15;;;;;;;0.45;0.10;;;12.30;99.90;;;;;;5054936;28;20498;-76
2022/05/28 05:39:41;;;;;;;2.30;0.00;;;12.40;99.90;;;;;;5054916;28;20105;-76
2022/05/28 05:42:07;;;;;;;4.90;0.30;;;12.50;99.90;;;;;;5055179;28;20029;-76
2022/05/28 05:44:33;;;;;;;1.92;0.03;;;12.50;99.90;;;;;;5054774;28;20025;-75
2022/05/28 05:46:58;;;;;;;4.65;0.43;;;12.40;99.90;;;;;;5054631;28;20032;-76
2022/05/28 05:49:24;;;;;;;6.05;0.22;;;12.40;99.90;;;;;;5054780;28;20032;-75
2022/05/28 05:51:51;;;;;;;3.35;0.00;;;12.40;99.90;;;;;;5055273;28;20033;-75
2022/05/28 05:54:17;;;;;;;3.80;0.00;;;12.40;99.90;;;;;;5053324;28;20040;-76
2022/05/28 05:56:43;;;;;;;3.97;0.30;;;12.30;99.90;;;;;;5053382;28;20017;-76
2022/05/28 05:59:09;;;;;;;3.00;0.00;;;12.40;99.90;;;;;;5053299;28;20036;-76
2022/05/28 06:01:34;;;;;;;5.30;0.40;;;12.60;99.90;;;;;;4897276;22;4309272;-77
2022/05/28 06:04:00;;;;;;;1.00;0.00;;;12.70;99.90;;;;;;5036336;28;20143;-77
2022/05/28 06:06:26;;;;;;;3.55;0.00;;;12.80;99.90;;;;;;5036427;28;20034;-78
2022/05/28 06:08:52;;;;;;;1.83;0.03;;;12.80;99.90;;;;;;5036551;28;20387;-77
2022/05/28 06:11:18;;;;;;;5.35;0.00;;;12.80;99.90;;;;;;5036101;28;20029;-77
2022/05/28 06:13:44;;;;;;;4.43;0.00;;;12.70;99.90;;;;;;5035411;28;20037;-73
2022/05/28 06:16:10;;;;;;;4.82;1.60;;;12.50;99.90;;;;;;5035701;28;20021;-73
2022/05/28 06:18:36;;;;;;;3.83;0.00;;;12.50;99.90;;;;;;5035521;28;20476;-73
2022/05/28 06:21:03;;;;;;;5.00;0.00;;;12.40;99.90;;;;;;5035642;28;20033;-73
2022/05/28 06:23:29;;;;;;;3.20;0.05;;;12.30;99.90;;;;;;5035568;28;20033;-73
2022/05/28 06:25:55;;;;;;;3.38;0.57;;;12.20;99.90;;;;;;5035382;28;20523;-73
2022/05/28 06:28:21;;;;;;;3.38;0.00;;;12.20;99.90;;;;;;5035153;28;20148;-73
2022/05/28 06:30:49;;;;;;;3.97;0.25;;;12.20;99.90;;;;;;5035193;28;20049;-73
2022/05/28 06:33:15;;;;;;;9.35;0.35;;;12.20;99.90;;;;;;5035724;28;20017;-73
2022/05/28 06:35:42;;;;;;;1.88;0.03;;;12.20;99.90;;;;;;5035156;28;20022;-73
2022/05/28 06:38:08;;;;;;;1.85;0.00;;;12.30;99.90;;;;;;5035047;28;20538;-73
2022/05/28 06:40:37;;;;;;;3.00;0.00;;;12.60;99.90;;;;;;5035167;28;20018;-75
2022/05/28 06:43:03;;;;;;;3.03;0.55;;;12.80;99.90;;;;;;5035104;28;20037;-75
2022/05/28 06:45:29;;;;;;;3.00;0.00;;;13.00;99.90;;;;;;5033709;28;20033;-75
2022/05/28 06:47:55;;;;;;;2.35;0.00;;;13.10;99.90;;;;;;5033881;28;20103;-75
2022/05/28 06:53:09;;;;;;;9.75;1.05;;;13.20;99.90;;;;;;5035654;28;20075;-75
2022/05/28 06:55:35;;;;;;;4.25;0.10;;;13.50;99.90;;;;;;5034743;28;20025;-75
2022/05/28 06:58:02;;;;;;;4.00;0.38;;;13.80;99.90;;;;;;5035190;28;20033;-75
2022/05/28 07:00:28;;;;;;;1.75;0.00;;;14.10;99.90;;;;;;5034431;28;20094;-75
2022/05/28 07:02:53;;;;;;;3.00;0.00;;;14.20;99.90;;;;;;5034610;28;20068;-75
2022/05/28 07:05:19;;;;;;;5.82;0.10;;;14.40;99.90;;;;;;5033781;28;20033;-75
2022/05/28 07:07:44;;;;;;;5.20;0.10;;;14.50;99.90;;;;;;5034596;28;20112;-75
2022/05/28 07:10:10;;;;;;;6.90;0.13;;;14.80;99.90;;;;;;5034781;28;20026;-73
2022/05/28 07:12:36;;;;;;;8.98;0.52;;;14.90;99.90;;;;;;5034401;28;20049;-75
2022/05/28 07:15:02;;;;;;;2.58;0.30;;;14.90;99.90;;;;;;5034867;28;20022;-75
2022/05/28 07:17:28;;;;;;;0.73;0.00;;;15.00;99.90;;;;;;5032994;28;20108;-75
2022/05/28 07:19:54;;;;;;;2.60;0.05;;;15.00;99.90;;;;;;5021014;28;20054;-75
2022/05/28 07:22:19;;;;;;;3.08;0.22;;;15.10;99.90;;;;;;5032902;28;20029;-75
2022/05/28 07:24:45;;;;;;;3.40;0.17;;;15.30;99.90;;;;;;5032206;28;20110;-74
2022/05/28 07:27:12;;;;;;;2.70;0.00;;;15.30;99.90;;;;;;5034317;28;20050;-75
2022/05/28 07:29:39;;;;;;;8.68;0.55;;;15.50;99.20;;;;;;5031977;28;20087;-75
2022/05/28 07:32:05;;;;;;;2.67;0.10;;;15.90;98.20;;;;;;5033112;28;20021;-72
2022/05/28 07:34:31;;;;;;;4.00;0.35;;;16.00;97.00;;;;;;5033788;28;20105;-72
2022/05/28 07:36:58;;;;;;;2.72;0.50;;;16.20;97.90;;;;;;5033738;28;20096;-72
2022/05/28 07:39:23;;;;;;;5.22;0.25;;;16.10;94.70;;;;;;5031857;28;20029;-72
2022/05/28 07:41:49;;;;;;;4.05;0.17;;;16.20;96.90;;;;;;5032585;28;20029;-75
2022/05/28 07:44:15;;;;;;;2.45;0.00;;;16.50;96.40;;;;;;5030518;28;20026;-74
2022/05/28 07:46:41;;;;;;;2.55;0.15;;;16.50;95.60;;;;;;5014267;28;20037;-75
2022/05/28 07:49:07;;;;;;;2.88;0.32;;;17.00;95.80;;;;;;5014064;28;20029;-75
2022/05/28 07:51:35;;;;;;;2.25;0.50;;;16.70;97.00;;;;;;5013370;28;20018;-73
2022/05/28 07:54:02;;;;;;;8.00;0.10;;;16.60;98.00;;;;;;5013904;28;20025;-73
2022/05/28 07:56:28;;;;;;;4.75;0.45;;;16.30;99.10;;;;;;5013966;28;20076;-71
2022/05/28 07:58:59;;;;;;;4.28;0.32;;;16.10;98.10;;;;;;5020113;28;20021;-74
2022/05/28 08:01:35;;;;;;;1.85;0.00;;;15.80;97.80;;;;;;5033528;28;20037;-71
2022/05/28 08:04:00;;;;;;;6.70;0.10;;;15.80;99.50;;;;;;5031864;28;20072;-71
2022/05/28 08:06:27;;;;;;;1.85;0.00;;;15.60;99.30;;;;;;5032261;28;20484;-73
2022/05/28 08:08:53;;;;;;;2.40;0.00;;;15.50;99.40;;;;;;5033311;28;20032;-73
2022/05/28 08:11:21;;;;;;;3.75;0.20;;;15.10;99.90;;;;;;5032201;28;20017;-71
2022/05/28 08:13:47;;;;;;;5.30;0.13;;;15.10;99.90;;;;;;5032312;28;20534;-75
2022/05/28 08:16:13;;;;;;;2.95;0.17;;;15.10;99.90;;;;;;5032099;28;20029;-75
2022/05/28 08:18:39;;;;;;;4.68;0.32;;;15.20;99.90;;;;;;5033410;28;20035;-75
2022/05/28 08:23:51;;;;;;;3.08;0.00;;;15.60;99.90;;;;;;5034096;28;20087;-73
2022/05/28 08:26:19;;;;;;;5.25;0.00;;;15.70;95.40;;;;;;5033326;28;20495;-75
2022/05/28 08:28:46;;;;;;;3.70;0.25;;;16.00;96.00;;;;;;5033207;28;20018;-74
2022/05/28 08:31:12;;;;;;;3.17;0.00;;;15.90;93.90;;;;;;5031939;28;20476;-72
2022/05/28 08:33:38;;;;;;;2.92;0.20;;;15.80;95.10;;;;;;5031888;28;20017;-73
2022/05/28 08:36:05;;;;;;;2.72;0.00;;;15.50;97.60;;;;;;5034243;28;20017;-74
2022/05/28 08:38:31;;;;;;;2.95;0.00;;;15.60;99.90;;;;;;5033378;28;20099;-74
2022/05/28 08:40:59;;;;;;;4.05;0.25;;;15.70;99.90;;;;;;5033415;28;20021;-71
2022/05/28 08:43:30;;;;;;;2.83;0.10;;;16.00;96.80;;;;;;5031694;28;20026;-71
2022/05/28 08:45:56;;;;;;;1.77;0.00;;;16.10;92.00;;;;;;5033564;28;20391;-71
2022/05/28 08:48:41;;;;;;;3.88;0.00;;;15.90;94.10;;;;;;5032888;28;20029;-74
2022/05/28 08:51:22;;;;;;;9.65;0.20;;;15.70;96.50;;;;;;5034279;28;20049;-78
2022/05/28 08:54:16;;;;;;;2.67;0.30;;;15.40;97.00;;;;;;5036436;28;20029;-78
2022/05/28 08:56:43;;;;;;;6.43;0.32;;;15.90;98.80;;;;;;5016609;28;20096;-75
2022/05/28 08:59:16;;;;;;;3.10;0.10;;;15.70;97.10;;;;;;5032294;28;20101;-76
2022/05/28 09:01:44;;;;;;;4.82;0.00;;;16.20;95.70;;;;;;5031284;28;20033;-78
2022/05/28 09:04:19;;;;;;;3.53;0.10;;;16.60;85.50;;;;;;5034539;28;20049;-75
2022/05/28 09:06:53;;;;;;;9.85;0.35;;;16.60;90.40;;;;;;5032882;28;20025;-77
2022/05/28 09:09:26;;;;;;;5.90;0.03;;;16.50;90.90;;;;;;5034322;28;20026;-79
2022/05/28 09:12:02;;;;;;;6.60;0.60;;;16.30;91.50;;;;;;5034613;28;20080;-78
2022/05/28 09:14:36;;;;;;;4.07;0.00;;;16.10;91.90;;;;;;5031928;28;20025;-73
2022/05/28 09:17:07;;;;;;;1.08;0.00;;;15.70;92.80;;;;;;5033734;28;20024;-73
2022/05/28 09:19:41;;;;;;;5.85;0.32;;;15.60;96.20;;;;;;5031572;28;20034;-73
2022/05/28 09:22:07;;;;;;;5.13;0.05;;;15.70;96.00;;;;;;5031519;28;20376;-73
2022/05/28 09:24:33;;;;;;;6.25;0.43;;;16.00;93.40;;;;;;5031614;28;20067;-73
2022/05/28 09:27:11;;;;;;;4.50;0.00;;;16.50;92.10;;;;;;5032613;28;20567;-73
2022/05/28 09:29:56;;;;;;;3.58;0.00;;;16.70;90.70;;;;;;5036366;28;20036;-75
2022/05/28 09:32:31;;;;;;;4.55;0.22;;;16.80;88.60;;;;;;5034985;28;20029;-75
2022/05/28 09:35:03;;;;;;;6.50;0.10;;;16.70;89.00;;;;;;5034930;28;20022;-75
2022/05/28 09:38:03;;;;;;;6.53;0.68;;;16.50;91.20;;;;;;5034915;28;20558;-76
2022/05/28 09:40:46;;;;;;;5.53;0.30;;;16.20;90.80;;;;;;5036442;28;20038;-76
2022/05/28 09:43:30;;;;;;;6.43;0.00;;;16.40;92.70;;;;;;5035161;28;20028;-74
2022/05/28 09:46:19;;;;;;;2.83;0.10;;;16.40;91.20;;;;;;5036429;28;20365;-74
2022/05/28 09:48:47;;;;;;;3.00;0.08;;;16.40;91.30;;;;;;5036107;28;20115;-74
2022/05/28 09:51:24;;;;;;;3.90;0.00;;;16.20;91.30;;;;;;5034737;28;20028;-74
2022/05/28 09:56:45;;;;;;;5.72;0.40;;;16.40;91.90;;;;;;5036228;28;20144;-74
2022/05/28 09:59:32;;;;;;;3.22;0.10;;;16.50;85.70;;;;;;5035887;28;20373;-74
2022/05/28 10:02:01;;;;;;;6.20;0.63;;;16.50;84.70;;;;;;5035792;28;20057;-74
2022/05/28 10:04:29;;;;;;;;;;;16.30;90.00;;;;;;5034832;28;20072;-74
2022/05/28 10:07:03;;;;;;;6.32;0.25;;;16.10;90.80;;;;;;5035070;28;19959;-72
2022/05/28 10:09:34;;;;;;;3.67;0.30;;;15.90;90.90;;;;;;5036255;28;20060;-73
2022/05/28 10:12:15;;;;;;;8.55;0.35;;;16.00;92.00;;;;;;5034396;28;20028;-74
2022/05/28 10:14:41;;;;;;;3.05;0.00;;;16.50;93.60;;;;;;5035417;28;20026;-74
2022/05/28 10:17:07;;;;;;;4.70;0.00;;;17.10;90.00;;;;;;5035532;28;20029;-72
2022/05/28 10:19:47;;;;;;;6.45;0.52;;;17.40;87.00;;;;;;5035726;28;20032;-73
2022/05/28 10:22:19;;;;;;;4.55;0.65;;;17.40;85.10;;;;;;5035468;28;20029;-72
2022/05/28 10:24:54;;;;;;;4.97;0.38;;;17.40;76.50;;;;;;5035425;28;20029;-73
2022/05/28 10:27:48;;;;;;;4.10;0.00;;;17.70;83.40;;;;;;5035148;28;20017;-73
2022/05/28 10:30:29;;;;;;;3.83;0.63;;;18.00;77.20;;;;;;5028903;28;20077;-73
2022/05/28 10:32:55;;;;;;;1.65;0.05;;;18.20;73.80;;;;;;5035290;28;20048;-73
2022/05/28 10:35:29;;;;;;;0.50;0.10;;;18.30;76.10;;;;;;5035147;28;20025;-74
2022/05/28 10:38:08;;;;;;;0.77;0.10;;;18.60;77.30;;;;;;5035880;28;20071;-73
2022/05/28 10:40:46;;;;;;;5.57;0.00;;;18.80;73.70;;;;;;5034048;28;20030;-73
2022/05/28 10:43:29;;;;;;;3.40;0.20;;;19.00;70.60;;;;;;5035630;28;20037;-73
2022/05/28 10:46:12;;;;;;;3.17;0.05;;;19.30;73.50;;;;;;5034951;28;20480;-73
2022/05/28 10:49:18;;;;;;;1.55;0.10;;;19.60;70.00;;;;;;5035440;28;20517;-73
2022/05/28 10:52:05;;;;;;;3.75;0.00;;;19.80;64.80;;;;;;5035223;28;20460;-73
2022/05/28 10:54:51;;;;;;;1.00;0.00;;;20.10;69.40;;;;;;5035076;28;20026;-73
2022/05/28 10:57:32;;;;;;;1.73;0.17;;;19.80;71.70;;;;;;5035037;28;20026;-74
2022/05/28 11:00:12;;;;;;;2.05;0.17;;;19.90;73.90;;;;;;5034831;28;20508;-75
2022/05/28 11:03:15;;;;;;;6.20;0.00;;;19.90;72.20;;;;;;5033432;28;20397;-75
2022/05/28 11:05:56;;;;;;;5.68;0.20;;;19.90;68.90;;;;;;5034790;28;20025;-74
2022/05/28 11:08:44;;;;;;;3.40;0.00;;;20.10;71.80;;;;;;5034663;28;20021;-74
2022/05/28 11:11:24;;;;;;;2.00;0.00;;;20.30;66.50;;;;;;5033410;28;20017;-74
2022/05/28 11:14:20;;;;;;;5.82;0.60;;;20.30;68.10;;;;;;5034613;28;20767;-74
2022/05/28 11:17:23;;;;;;;3.45;0.25;;;19.80;65.90;;;;;;5034848;28;20021;-72
2022/05/28 11:20:20;;;;;;;2.95;0.28;;;19.00;67.50;;;;;;5034898;28;20067;-72
2022/05/28 11:22:49;;;;;;;5.65;0.30;;;18.30;68.30;;;;;;5013460;28;20036;-72
2022/05/28 11:25:17;;;;;;;;;;;18.10;69.80;;;;;;5034909;28;20029;-72
2022/05/28 11:27:51;;;;;;;;;;;18.40;71.90;;;;;;5035125;28;20314;-72
2022/05/28 11:30:22;;;;;;;1.98;0.30;;;19.00;68.70;;;;;;5032911;28;19905;-72
2022/05/28 11:33:01;;;;;;;2.42;0.00;;;18.90;64.10;;;;;;5034146;28;20084;-72
2022/05/28 11:35:47;;;;;;;3.22;0.17;;;19.10;65.60;;;;;;5034611;28;20025;-73
2022/05/28 11:38:47;;;;;;;1.45;0.00;;;19.60;61.50;;;;;;5034739;28;20018;-72
2022/05/28 11:41:34;;;;;;;2.08;0.00;;;19.90;60.70;;;;;;5032801;28;20045;-73
2022/05/28 11:44:10;;;;;;;7.50;1.03;;;20.50;63.10;;;;;;5034163;28;20075;-72
2022/05/28 11:46:54;;;;;;;1.27;0.08;;;20.80;55.90;;;;;;5033975;28;20017;-73
2022/05/28 11:52:37;;;;;;;4.22;0.28;;;21.20;57.60;;;;;;5033806;28;20037;-72
2022/05/28 11:55:12;;;;;;;1.85;0.00;;;21.60;57.90;;;;;;5032471;28;20025;-72
2022/05/28 11:57:57;;;;;;;2.90;0.00;;;21.90;57.00;;;;;;5034289;28;20025;-72
2022/05/28 12:00:25;;;;;;;2.17;0.03;;;22.00;54.40;;;;;;5033617;28;20368;-72
2022/05/28 12:02:59;;;;;;;2.47;0.00;;;21.70;55.50;;;;;;5033490;28;20112;-72
2022/05/28 12:05:44;;;;;;;5.03;0.00;;;21.10;56.80;;;;;;5033841;28;20038;-72
2022/05/28 12:08:28;;;;;;;4.72;0.00;;;20.30;60.20;;;;;;5033712;28;20452;-72
2022/05/28 12:11:01;;;;;;;3.90;0.28;;;19.80;63.80;;;;;;5034124;28;20109;-72
2022/05/28 12:13:41;;;;;;;0.75;0.00;;;19.70;68.70;;;;;;5033874;28;20026;-75
2022/05/28 12:16:31;;;;;;;4.88;0.43;;;19.60;68.30;;;;;;5032139;28;20060;-75
2022/05/28 12:19:15;;;;;;;7.15;0.38;;;20.10;68.00;;;;;;5033795;28;20104;-74
2022/05/28 12:21:43;;;;;;;7.72;0.20;;;20.50;64.80;;;;;;5032081;28;20396;-75
2022/05/28 12:24:18;;;;;;;0.77;0.00;;;21.10;64.10;;;;;;5033201;28;20103;-75
2022/05/28 12:29:34;;;;;;;1.17;0.20;;;21.20;57.20;;;;;;5034138;28;20033;-75
2022/05/28 12:32:17;;;;;;;2.95;0.00;;;20.60;60.30;;;;;;5033477;28;20432;-74
2022/05/28 12:35:01;;;;;;;1.67;0.20;;;20.20;62.70;;;;;;5031736;28;20112;-74
2022/05/28 12:37:36;;;;;;;3.22;0.13;;;19.90;64.50;;;;;;5033433;28;20060;-74
2022/05/28 12:40:38;;;;;;;3.00;0.40;;;19.90;63.90;;;;;;5031981;28;20021;-74
2022/05/28 12:43:24;;;;;;;4.75;0.22;;;19.60;64.50;;;;;;5033652;28;20025;-74
2022/05/28 12:45:52;;;;;;;6.55;0.00;;;19.10;64.10;;;;;;5033077;28;20033;-75
2022/05/28 12:48:29;;;;;;;1.98;0.00;;;18.90;65.30;;;;;;5033195;28;20057;-75
2022/05/28 12:51:03;;;;;;;1.70;0.10;;;18.80;63.60;;;;;;5031803;28;20032;-74
2022/05/28 12:53:50;;;;;;;4.22;0.10;;;18.80;65.90;;;;;;5033047;28;20428;-74
2022/05/28 12:56:33;;;;;;;1.23;0.20;;;19.50;64.60;;;;;;5021534;28;20108;-74
2022/05/28 12:59:13;;;;;;;3.45;0.30;;;20.20;61.60;;;;;;5032862;28;20029;-75
2022/05/28 13:02:07;;;;;;;2.92;0.35;;;20.60;62.40;;;;;;5032860;28;20558;-76
2022/05/28 13:04:42;;;;;;;1.95;0.00;;;20.90;59.00;;;;;;5029325;28;20037;-75
2022/05/28 13:07:21;;;;;;;2.35;0.10;;;20.80;54.40;;;;;;5036878;28;20088;-75
2022/05/28 13:09:50;;;;;;;2.90;0.08;;;20.50;54.60;;;;;;5037133;28;20362;-75
2022/05/28 13:12:30;;;;;;;1.10;0.22;;;20.00;54.20;;;;;;5036696;28;20032;-75
2022/05/28 13:15:10;;;;;;;4.43;0.55;;;19.50;58.40;;;;;;5036946;28;20021;-75
2022/05/28 13:18:06;;;;;;;3.80;0.10;;;19.20;59.90;;;;;;5035343;28;20025;-76
2022/05/28 13:20:58;;;;;;;3.63;0.38;;;19.70;62.40;;;;;;5037198;28;20033;-76
2022/05/28 13:24:05;;;;;;;0.82;0.00;;;20.50;57.90;;;;;;5036592;28;20025;-74
2022/05/28 13:26:48;;;;;;;5.38;0.00;;;20.50;56.00;;;;;;5036413;28;20029;-74